Time;durP1;ratioP1;P1;durP2;ratioP2;P2;SDS_P1;SDS_P2;PMS_P1;PMS_P2;Temp;Humidity;BMP_temperature;BMP_pressure;BME280_temperature;BME280_humidity;BME280_pressure;Samples;Min_cycle;Max_cycle;Signal;HPM_P1;HPM_P2
2022/01/08 00:00:44;;;;;;;6.40;1.70;;;1.40;99.90;;;;;;5905016;24;20005;-85
2022/01/08 00:03:13;;;;;;;8.82;1.83;;;1.40;99.90;;;;;;5901347;24;20017;-86
2022/01/08 00:05:45;;;;;;;7.93;1.77;;;2.00;99.90;;;;;;5894497;24;20005;-87
2022/01/08 00:08:14;;;;;;;9.20;2.13;;;0.90;99.90;;;;;;5874462;24;20017;-85
2022/01/08 00:10:54;;;;;;;10.95;1.80;;;2.10;99.90;;;;;;5873477;24;20419;-87
2022/01/08 00:13:24;;;;;;;6.25;1.73;;;0.90;99.90;;;;;;5908625;24;20048;-87
2022/01/08 00:15:52;;;;;;;9.52;1.88;;;1.50;99.90;;;;;;5925393;24;20024;-85
2022/01/08 00:18:21;;;;;;;9.50;1.67;;;2.10;99.90;;;;;;5996914;23;20022;-88
2022/01/08 00:23:51;;;;;;;7.53;1.50;;;1.20;99.90;;;;;;6115131;23;20135;-85
2022/01/08 00:29:14;;;;;;;6.68;1.70;;;2.60;99.90;;;;;;6181548;23;20079;-87
2022/01/08 00:32:06;;;;;;;7.75;1.80;;;1.70;99.90;;;;;;6188774;23;20008;-84
2022/01/08 00:35:35;;;;;;;;;;;;;;;;;;;;;
2022/01/08 01:26:24;;;;;;;4.57;2.67;;;1.30;99.90;;;;;;6147667;22;4124928;-83
2022/01/08 06:55:39;;;;;;;16.30;5.28;;;0.30;99.90;;;;;;6190359;23;20025;-86
2022/01/08 06:58:59;;;;;;;;;;;;;;;;;;;;;
2022/01/08 07:05:46;;;;;;;16.50;5.78;;;0.40;99.90;;;;;;6064370;23;20500;-80
2022/01/08 07:08:12;;;;;;;20.52;6.60;;;1.70;99.90;;;;;;6039755;23;20035;-84
2022/01/08 07:10:44;;;;;;;16.27;5.07;;;0.40;99.90;;;;;;6018519;23;20019;-85
2022/01/08 07:13:19;;;;;;;18.38;6.50;;;-0.10;99.90;;;;;;6040079;23;20018;-83
2022/01/08 07:15:48;;;;;;;20.25;6.50;;;1.90;99.90;;;;;;6039992;23;20130;-82
2022/01/08 07:18:25;;;;;;;14.98;5.95;;;1.70;99.90;;;;;;6015476;23;20068;-85
2022/01/08 07:21:22;;;;;;;14.60;5.67;;;0.60;99.90;;;;;;5978712;24;20019;-82
2022/01/08 07:23:48;;;;;;;24.02;6.05;;;0.80;99.90;;;;;;5916248;24;20060;-86
2022/01/08 07:26:14;;;;;;;14.63;6.18;;;0.50;99.90;;;;;;5896227;24;20022;-87
2022/01/08 07:28:40;;;;;;;15.23;6.07;;;-0.20;99.90;;;;;;5924925;24;20070;-88
2022/01/08 07:31:06;;;;;;;15.82;6.07;;;0.50;99.90;;;;;;5944234;24;20429;-88
2022/01/08 07:33:32;;;;;;;18.00;6.20;;;0.50;99.90;;;;;;5945338;24;20025;-85
2022/01/08 07:35:57;;;;;;;16.25;5.85;;;0.50;99.90;;;;;;5923101;24;20413;-86
2022/01/08 07:58:16;;;;;;;13.13;4.32;;;0.00;99.90;;;;;;5922346;23;20039;-85
2022/01/08 08:13:04;;;;;;;10.43;4.32;;;0.20;99.90;;;;;;5787958;24;20106;-83
2022/01/08 08:30:00;;;;;;;16.04;4.16;;;0.80;99.90;;;;;;6120750;22;4091049;-81
2022/01/08 08:32:28;;;;;;;14.38;4.40;;;1.90;99.90;;;;;;6158584;23;20085;-83
2022/01/08 08:35:47;;;;;;;18.80;4.65;;;0.60;99.90;;;;;;6133908;23;20017;-83
2022/01/08 08:38:14;;;;;;;20.65;4.90;;;0.40;99.90;;;;;;6157568;23;20024;-82
2022/01/08 08:40:40;;;;;;;18.95;4.70;;;1.00;99.90;;;;;;6137769;23;20021;-81
2022/01/08 08:43:06;;;;;;;19.60;5.22;;;0.90;99.90;;;;;;6160619;23;20057;-81
2022/01/08 08:45:32;;;;;;;20.70;4.53;;;2.00;99.90;;;;;;6155196;23;20299;-82
2022/01/08 08:47:58;;;;;;;15.27;4.32;;;2.10;99.90;;;;;;6135712;23;20024;-82
2022/01/08 08:50:41;;;;;;;17.00;4.32;;;1.20;99.90;;;;;;6136514;23;20009;-82
2022/01/08 08:53:15;;;;;;;11.15;4.18;;;1.10;99.90;;;;;;6135277;23;20017;-82
2022/01/08 08:59:14;;;;;;;14.95;4.20;;;1.50;99.90;;;;;;6158367;23;20265;-83
2022/01/08 09:01:40;;;;;;;13.65;4.10;;;1.30;99.90;;;;;;6159537;23;20456;-82
2022/01/08 09:04:06;;;;;;;11.68;4.05;;;1.80;99.90;;;;;;6158995;23;20013;-82
2022/01/08 09:06:32;;;;;;;14.00;4.53;;;1.20;99.90;;;;;;6134140;23;20047;-76
2022/01/08 09:08:58;;;;;;;21.25;4.40;;;1.30;99.90;;;;;;6157949;23;20013;-77
2022/01/08 09:11:24;;;;;;;18.60;4.28;;;1.30;99.90;;;;;;6159085;23;20018;-77
2022/01/08 09:13:50;;;;;;;16.05;4.50;;;1.40;99.90;;;;;;6133676;23;20027;-78
2022/01/08 09:16:16;;;;;;;16.85;4.20;;;1.40;99.90;;;;;;6159352;23;20017;-78
2022/01/08 09:18:43;;;;;;;13.25;3.67;;;1.40;99.90;;;;;;6134543;23;20053;-78
2022/01/08 09:21:09;;;;;;;11.60;4.68;;;1.50;99.90;;;;;;6134495;23;20020;-78
2022/01/08 09:23:35;;;;;;;20.35;4.47;;;1.80;99.90;;;;;;6133603;23;20044;-78
2022/01/08 09:26:04;;;;;;;13.88;3.95;;;2.00;99.90;;;;;;6158913;23;20020;-82
2022/01/08 09:28:30;;;;;;;15.88;4.60;;;1.70;99.90;;;;;;6134962;23;20017;-80
2022/01/08 09:30:57;;;;;;;21.20;3.97;;;1.90;99.90;;;;;;6152038;23;20128;-81
2022/01/08 09:33:24;;;;;;;14.50;3.97;;;2.30;99.90;;;;;;6129431;23;20398;-81
2022/01/08 09:35:50;;;;;;;15.73;3.92;;;4.60;99.90;;;;;;6128870;23;20237;-81
2022/01/08 09:38:15;;;;;;;18.83;3.83;;;3.00;99.90;;;;;;6152609;23;20017;-82
2022/01/08 09:40:41;;;;;;;20.20;3.83;;;2.20;99.90;;;;;;6152435;23;20064;-77
2022/01/08 09:43:07;;;;;;;15.55;3.85;;;2.20;99.90;;;;;;6152587;23;20145;-76
2022/01/08 09:45:33;;;;;;;15.13;3.92;;;2.20;99.90;;;;;;6127583;23;20085;-78
2022/01/08 09:47:58;;;;;;;13.52;3.90;;;2.20;99.90;;;;;;6152324;23;20402;-78
2022/01/08 09:50:24;;;;;;;15.73;3.83;;;2.30;99.90;;;;;;6153147;23;20351;-77
2022/01/08 09:52:56;;;;;;;14.82;3.60;;;2.20;99.90;;;;;;6127110;23;20410;-78
2022/01/08 09:55:21;;;;;;;23.48;3.80;;;2.30;99.90;;;;;;6128169;23;20018;-79
2022/01/08 09:57:47;;;;;;;17.45;3.50;;;2.30;99.90;;;;;;6128278;23;20351;-78
2022/01/08 10:00:16;;;;;;;17.85;3.63;;;2.40;99.90;;;;;;6127822;23;20371;-77
2022/01/08 10:02:44;;;;;;;13.25;3.50;;;2.50;99.90;;;;;;6127372;23;20123;-76
2022/01/08 10:05:12;;;;;;;14.73;3.10;;;2.50;99.90;;;;;;6152686;23;20017;-78
2022/01/08 10:07:38;;;;;;;10.77;3.38;;;2.60;99.90;;;;;;6152343;23;20076;-77
2022/01/08 10:10:13;;;;;;;14.43;3.70;;;2.70;99.90;;;;;;6153109;23;20021;-80
2022/01/08 10:12:45;;;;;;;;;;;2.70;99.90;;;;;;6153036;23;20702;-80
2022/01/08 10:17:59;;;;;;;14.30;3.72;;;2.70;99.90;;;;;;6151555;23;20017;-78
2022/01/08 10:20:35;;;;;;;9.07;2.95;;;2.70;99.90;;;;;;6152492;23;20061;-76
2022/01/08 10:23:25;;;;;;;13.88;3.30;;;2.80;99.90;;;;;;6126211;23;20017;-80
2022/01/08 10:25:55;;;;;;;19.60;3.17;;;2.80;99.90;;;;;;6152069;23;20020;-79
2022/01/08 10:28:46;;;;;;;12.45;3.10;;;3.80;99.90;;;;;;6153585;23;20453;-79
2022/01/08 10:31:42;;;;;;;15.95;3.05;;;2.90;99.90;;;;;;6126465;23;20025;-79
2022/01/08 10:34:22;;;;;;;12.57;3.22;;;2.90;99.90;;;;;;6127213;23;20025;-83
2022/01/08 10:36:57;;;;;;;13.18;3.40;;;2.90;99.90;;;;;;6154589;23;20013;-82
2022/01/08 10:39:31;;;;;;;12.30;3.15;;;3.10;99.90;;;;;;6152633;23;20112;-82
2022/01/08 10:41:59;;;;;;;10.77;3.28;;;3.10;99.90;;;;;;6128330;23;20013;-84
2022/01/08 10:44:35;;;;;;;14.57;3.83;;;3.10;99.90;;;;;;6152812;23;20017;-81
2022/01/08 10:47:05;;;;;;;12.20;3.38;;;3.10;99.90;;;;;;6129170;23;20115;-82
2022/01/08 10:50:09;;;;;;;21.23;3.92;;;3.10;99.90;;;;;;6127668;23;20032;-80
2022/01/08 10:52:48;;;;;;;10.77;3.55;;;3.20;99.90;;;;;;6062677;23;20029;-83
2022/01/08 10:55:31;;;;;;;18.30;4.18;;;3.20;99.90;;;;;;6032616;23;20078;-82
2022/01/08 10:57:57;;;;;;;13.18;3.88;;;3.30;99.90;;;;;;6040701;23;20022;-82
2022/01/08 11:00:30;;;;;;;17.38;3.97;;;3.30;99.90;;;;;;6064272;23;20070;-82
2022/01/08 11:02:56;;;;;;;14.60;4.80;;;3.20;99.90;;;;;;6039949;23;20079;-83
2022/01/08 11:05:33;;;;;;;14.10;4.30;;;3.30;99.90;;;;;;6037959;23;20014;-82
2022/01/08 11:08:14;;;;;;;15.48;4.40;;;4.10;99.90;;;;;;6037618;23;20023;-84
2022/01/08 11:10:42;;;;;;;16.27;4.63;;;4.30;99.90;;;;;;6060074;23;20023;-82
2022/01/08 11:13:13;;;;;;;11.50;4.13;;;3.10;99.90;;;;;;6016399;23;20049;-82
2022/01/08 11:15:51;;;;;;;12.05;4.30;;;3.20;99.90;;;;;;6016397;23;20019;-82
2022/01/08 11:18:21;;;;;;;12.38;4.50;;;3.40;99.90;;;;;;6016094;23;20019;-82
2022/01/08 11:20:48;;;;;;;11.20;4.75;;;3.30;99.90;;;;;;6040597;23;20048;-82
2022/01/08 11:23:22;;;;;;;20.27;5.60;;;3.40;99.90;;;;;;6066680;23;20024;-82
2022/01/08 11:25:50;;;;;;;23.27;5.60;;;4.40;99.90;;;;;;6128585;23;20010;-82
2022/01/08 11:28:17;;;;;;;12.10;5.03;;;3.90;99.90;;;;;;6152353;23;20378;-82
2022/01/08 11:30:57;;;;;;;14.80;4.80;;;4.90;99.90;;;;;;6127690;23;20028;-82
2022/01/08 11:33:25;;;;;;;16.05;5.50;;;4.00;99.90;;;;;;6128425;23;20488;-82
2022/01/08 11:35:52;;;;;;;11.02;5.10;;;3.60;99.90;;;;;;6127819;23;20025;-82
2022/01/08 11:38:20;;;;;;;10.65;4.90;;;4.90;99.90;;;;;;6153791;23;20020;-82
2022/01/08 11:40:49;;;;;;;14.38;4.75;;;4.30;99.90;;;;;;6127979;23;20020;-83
2022/01/08 11:43:17;;;;;;;14.63;5.93;;;4.90;99.90;;;;;;6152681;23;20129;-82
2022/01/08 11:45:47;;;;;;;13.15;5.18;;;3.70;99.90;;;;;;6153335;23;20009;-82
2022/01/08 11:48:14;;;;;;;11.90;5.10;;;3.70;99.90;;;;;;6152438;23;20092;-82
2022/01/08 11:50:48;;;;;;;14.95;5.32;;;3.70;99.90;;;;;;6153009;23;20049;-82
2022/01/08 11:53:20;;;;;;;16.83;5.10;;;3.60;99.90;;;;;;6126106;23;20017;-81
2022/01/08 11:55:55;;;;;;;18.33;6.20;;;3.70;99.90;;;;;;6126591;23;20396;-81
2022/01/08 11:58:20;;;;;;;19.63;6.00;;;3.70;99.90;;;;;;6128049;23;20032;-81
2022/01/08 12:00:55;;;;;;;14.90;6.05;;;3.60;99.90;;;;;;6152564;23;20013;-80
2022/01/08 12:03:23;;;;;;;12.75;5.53;;;4.60;99.90;;;;;;6151874;23;20013;-80
2022/01/08 12:05:49;;;;;;;14.82;5.45;;;3.70;99.90;;;;;;6152444;23;20449;-81
2022/01/08 12:08:17;;;;;;;17.58;5.68;;;4.60;99.90;;;;;;6128150;23;20172;-81
2022/01/08 12:11:01;;;;;;;15.80;5.75;;;3.70;99.90;;;;;;6151668;23;20121;-82
2022/01/08 12:13:46;;;;;;;20.88;6.40;;;3.70;99.90;;;;;;6153381;23;20025;-84
2022/01/08 12:16:31;;;;;;;21.95;6.30;;;5.00;99.90;;;;;;6150505;23;20394;-83
2022/01/08 12:18:57;;;;;;;;;;;3.70;99.90;;;;;;6126539;23;20435;-79
2022/01/08 12:21:35;;;;;;;15.80;6.18;;;3.70;99.90;;;;;;6153119;23;19944;-80
2022/01/08 12:24:26;;;;;;;16.23;6.10;;;3.70;99.90;;;;;;6149271;23;20013;-80
2022/01/08 12:27:38;;;;;;;17.70;6.60;;;3.80;99.90;;;;;;6111133;23;20021;-85
2022/01/08 12:30:35;;;;;;;23.42;7.35;;;3.80;99.90;;;;;;6015243;23;20074;-82
2022/01/08 12:33:27;;;;;;;16.63;6.47;;;3.40;99.90;;;;;;6015422;23;20026;-81
2022/01/08 12:36:13;;;;;;;14.73;7.15;;;3.90;99.90;;;;;;6039227;23;20077;-83
2022/01/08 12:38:38;;;;;;;19.08;7.70;;;4.80;99.90;;;;;;6014903;23;20159;-82
2022/01/08 12:41:18;;;;;;;15.30;6.75;;;3.90;99.90;;;;;;6032495;23;20884;-80
2022/01/08 12:43:49;;;;;;;16.58;7.80;;;3.90;99.90;;;;;;6014904;23;20014;-82
2022/01/08 12:46:25;;;;;;;16.25;7.82;;;5.00;99.90;;;;;;6014929;23;20067;-83
2022/01/08 12:49:13;;;;;;;17.35;8.00;;;3.80;99.90;;;;;;6015116;23;20019;-81
2022/01/08 12:51:48;;;;;;;20.15;8.27;;;3.90;99.90;;;;;;6014743;23;20011;-82
2022/01/08 12:54:17;;;;;;;20.40;9.60;;;3.90;99.90;;;;;;6015561;23;20022;-82
2022/01/08 12:56:55;;;;;;;17.63;9.00;;;4.10;99.90;;;;;;6015037;23;20045;-82
2022/01/08 12:59:28;;;;;;;18.10;9.88;;;3.80;99.90;;;;;;6039471;23;20122;-82
2022/01/08 13:01:54;;;;;;;22.38;9.52;;;3.90;99.90;;;;;;6015607;23;20463;-82
2022/01/08 13:04:22;;;;;;;18.80;9.43;;;4.60;99.90;;;;;;6040521;23;20014;-82
2022/01/08 13:06:48;;;;;;;20.88;11.35;;;4.00;99.90;;;;;;6100534;23;20020;-82
2022/01/08 13:09:14;;;;;;;18.52;11.10;;;4.50;99.90;;;;;;6156456;23;20373;-82
2022/01/08 13:15:57;;;;;;;21.15;10.88;;;3.00;99.90;;;;;;6155450;23;20021;-85
2022/01/08 13:19:04;;;;;;;19.85;12.00;;;3.90;99.90;;;;;;6147866;23;20049;-87
2022/01/08 13:21:34;;;;;;;16.55;10.88;;;2.80;99.90;;;;;;6148135;23;20477;-83
2022/01/08 13:25:15;;;;;;;18.27;10.88;;;3.90;99.90;;;;;;6106902;23;20020;-87
2022/01/08 13:27:53;;;;;;;20.05;10.75;;;4.50;99.90;;;;;;5988712;23;20019;-85
2022/01/08 13:30:18;;;;;;;18.55;12.18;;;4.60;99.90;;;;;;6009327;23;20464;-83
2022/01/08 13:33:08;;;;;;;19.15;11.15;;;4.70;99.90;;;;;;5958996;23;20098;-84
2022/01/08 13:35:34;;;;;;;17.13;11.95;;;3.40;99.90;;;;;;5984001;23;20024;-84
2022/01/08 13:38:00;;;;;;;20.92;11.27;;;4.80;99.90;;;;;;5981496;23;20028;-84
2022/01/08 13:40:26;;;;;;;20.30;11.07;;;4.30;99.90;;;;;;5982342;23;20094;-85
2022/01/08 13:42:53;;;;;;;16.27;11.02;;;5.00;99.90;;;;;;6005578;23;20413;-83
2022/01/08 13:45:22;;;;;;;19.92;10.52;;;3.80;99.90;;;;;;5958970;23;20457;-82
2022/01/08 13:47:49;;;;;;;16.45;11.23;;;5.10;99.90;;;;;;5981743;23;20115;-81
2022/01/08 13:50:34;;;;;;;18.23;9.93;;;3.80;99.90;;;;;;5958702;23;20023;-84
2022/01/08 13:53:05;;;;;;;17.23;10.38;;;4.40;99.90;;;;;;6004757;23;20039;-81
2022/01/08 13:55:45;;;;;;;18.80;10.55;;;4.90;99.90;;;;;;5981072;23;20789;-83
2022/01/08 13:58:27;;;;;;;20.30;11.20;;;3.70;99.90;;;;;;5980875;23;20723;-82
2022/01/08 14:01:01;;;;;;;19.20;11.27;;;4.90;99.90;;;;;;5980550;23;20030;-78
2022/01/08 14:03:33;;;;;;;18.75;10.85;;;3.70;99.90;;;;;;5993113;23;20036;-77
2022/01/08 14:06:06;;;;;;;20.02;10.57;;;3.70;99.90;;;;;;6094841;23;20021;-79
2022/01/08 14:08:33;;;;;;;20.65;11.15;;;4.10;99.90;;;;;;6095707;23;20022;-78
2022/01/08 14:11:02;;;;;;;17.75;11.43;;;4.00;99.90;;;;;;6074020;23;20018;-80
2022/01/08 14:13:33;;;;;;;22.60;11.10;;;3.60;99.90;;;;;;6098816;23;20018;-80
2022/01/08 14:16:02;;;;;;;19.20;11.35;;;3.60;99.90;;;;;;6122962;23;20022;-79
2022/01/08 14:18:29;;;;;;;14.18;10.00;;;3.60;99.90;;;;;;6074336;23;20427;-80
2022/01/08 14:20:58;;;;;;;23.50;11.93;;;3.60;99.90;;;;;;6074634;23;20498;-79
2022/01/08 14:23:29;;;;;;;16.27;11.05;;;3.60;99.90;;;;;;6098501;23;20053;-80
2022/01/08 14:25:56;;;;;;;20.35;10.05;;;3.60;99.90;;;;;;6097535;23;20458;-77
2022/01/08 14:28:30;;;;;;;19.35;9.85;;;3.50;99.90;;;;;;6074562;23;20303;-78
2022/01/08 14:31:52;;;;;;;;;;;;;;;;;;;;;
2022/01/08 14:51:38;;;;;;;15.25;9.48;;;2.90;99.90;;;;;;5895848;24;20105;-80
2022/01/08 14:58:15;;;;;;;16.48;8.43;;;2.90;99.90;;;;;;5842701;24;20029;-80
2022/01/08 15:00:48;;;;;;;19.27;9.45;;;2.50;99.90;;;;;;5818677;24;20014;-79
2022/01/08 15:06:48;;;;;;;20.85;10.50;;;3.30;99.90;;;;;;5841604;24;20044;-79
2022/01/08 15:09:14;;;;;;;20.83;10.55;;;3.20;99.90;;;;;;5872008;24;20020;-77
2022/01/08 15:11:39;;;;;;;19.90;11.60;;;3.20;99.90;;;;;;5884475;24;20710;-78
2022/01/08 15:14:05;;;;;;;23.20;11.60;;;3.10;99.90;;;;;;5899600;24;20056;-77
2022/01/08 15:16:31;;;;;;;23.95;11.75;;;3.20;99.90;;;;;;5922890;24;20423;-78
2022/01/08 15:18:56;;;;;;;20.50;10.82;;;3.20;99.90;;;;;;5993454;23;20015;-78
2022/01/08 15:21:22;;;;;;;21.85;12.65;;;3.10;99.90;;;;;;5987444;23;20011;-78
2022/01/08 15:23:48;;;;;;;23.05;12.93;;;3.50;99.90;;;;;;5985423;23;20019;-78
2022/01/08 15:26:14;;;;;;;20.45;11.55;;;3.10;99.90;;;;;;6011106;23;20059;-78
2022/01/08 15:28:43;;;;;;;22.35;12.77;;;3.10;99.90;;;;;;6010055;23;20023;-79
2022/01/08 15:31:10;;;;;;;23.42;12.77;;;3.10;99.90;;;;;;6010886;23;20457;-80
2022/01/08 15:33:38;;;;;;;24.10;11.65;;;3.10;99.90;;;;;;6008870;23;20022;-81
2022/01/08 15:36:05;;;;;;;24.50;13.02;;;3.10;99.90;;;;;;6128260;23;20071;-81
2022/01/08 15:38:32;;;;;;;20.77;11.60;;;3.00;99.90;;;;;;6126509;23;20025;-79
2022/01/08 15:40:57;;;;;;;24.70;12.05;;;4.10;99.90;;;;;;6151166;23;20032;-79
2022/01/08 15:43:23;;;;;;;17.13;11.55;;;3.60;99.90;;;;;;6150087;23;20426;-78
2022/01/08 15:45:52;;;;;;;19.63;8.98;;;4.20;99.90;;;;;;6127576;23;20013;-80
2022/01/08 15:48:17;;;;;;;16.33;9.68;;;3.10;99.90;;;;;;6151433;23;20072;-80
2022/01/08 15:50:43;;;;;;;14.35;8.50;;;3.00;99.90;;;;;;6151546;23;20295;-81
2022/01/08 15:53:09;;;;;;;16.40;9.27;;;3.00;99.90;;;;;;6126590;23;20017;-82
2022/01/08 15:55:38;;;;;;;17.70;9.65;;;3.00;99.90;;;;;;6151700;23;20017;-84
2022/01/08 15:58:03;;;;;;;17.02;8.98;;;3.80;99.90;;;;;;6151905;23;20018;-79
2022/01/08 16:00:29;;;;;;;19.35;8.90;;;3.00;99.90;;;;;;6152267;23;20423;-81
2022/01/08 16:02:55;;;;;;;19.75;9.55;;;2.90;99.90;;;;;;6150766;23;20014;-80
2022/01/08 16:05:22;;;;;;;19.77;9.18;;;4.10;99.90;;;;;;6126754;23;20013;-82
2022/01/08 16:07:51;;;;;;;19.40;8.75;;;3.00;99.90;;;;;;6125639;23;20513;-80
2022/01/08 16:10:17;;;;;;;16.77;7.82;;;2.90;99.90;;;;;;6126155;23;20021;-81
2022/01/08 16:12:43;;;;;;;16.40;8.23;;;4.00;99.90;;;;;;6126597;23;20028;-81
2022/01/08 16:15:09;;;;;;;13.10;8.00;;;2.90;99.90;;;;;;6151673;23;20330;-80
2022/01/08 16:17:35;;;;;;;10.65;6.72;;;2.90;99.90;;;;;;6151001;23;20021;-80
2022/01/08 16:20:01;;;;;;;10.93;6.95;;;3.90;99.90;;;;;;6150842;23;20025;-82
2022/01/08 16:22:26;;;;;;;10.68;6.88;;;3.60;99.90;;;;;;6126113;23;20025;-79
2022/01/08 16:24:54;;;;;;;11.13;6.38;;;4.10;99.90;;;;;;6151709;23;20387;-79
2022/01/08 16:27:20;;;;;;;15.52;6.43;;;3.20;99.90;;;;;;6127560;23;20014;-79
2022/01/08 16:29:46;;;;;;;11.23;5.72;;;3.50;99.90;;;;;;6126519;23;20018;-80
2022/01/08 16:32:13;;;;;;;13.95;7.25;;;4.20;99.90;;;;;;6125899;23;20363;-83
2022/01/08 16:34:38;;;;;;;15.20;8.15;;;2.90;99.90;;;;;;6152124;23;20314;-86
2022/01/08 16:37:05;;;;;;;12.90;7.40;;;2.90;99.90;;;;;;6135403;23;20014;-80
2022/01/08 16:39:30;;;;;;;11.00;7.43;;;2.90;99.90;;;;;;6136044;23;20025;-84
2022/01/08 16:41:56;;;;;;;14.27;5.90;;;3.00;99.90;;;;;;6165324;23;20105;-80
2022/01/08 16:44:22;;;;;;;10.80;5.55;;;3.00;99.90;;;;;;6167187;23;19998;-79
2022/01/08 16:46:48;;;;;;;9.32;4.68;;;4.10;99.90;;;;;;6153723;23;20012;-80
2022/01/08 16:49:16;;;;;;;8.38;5.88;;;3.80;99.90;;;;;;6153568;23;20029;-83
2022/01/08 16:51:42;;;;;;;11.55;5.72;;;3.60;99.90;;;;;;6177504;23;20365;-83
2022/01/08 16:54:10;;;;;;;12.93;5.93;;;3.90;99.90;;;;;;6175338;23;20017;-82
2022/01/08 16:56:36;;;;;;;9.00;4.75;;;2.90;99.90;;;;;;6176565;23;20025;-79
2022/01/08 16:59:02;;;;;;;7.55;4.82;;;3.00;99.90;;;;;;6174077;23;20022;-79
2022/01/08 17:01:28;;;;;;;9.70;4.80;;;3.10;99.90;;;;;;6139409;23;20056;-80
2022/01/08 17:03:55;;;;;;;8.75;4.40;;;3.00;99.90;;;;;;6128216;23;20048;-81
2022/01/08 17:06:20;;;;;;;7.88;4.50;;;3.10;99.90;;;;;;6151824;23;20045;-83
2022/01/08 17:08:47;;;;;;;9.50;4.35;;;4.00;99.90;;;;;;6128123;23;20066;-82
2022/01/08 17:11:17;;;;;;;10.07;5.20;;;3.90;99.90;;;;;;6129980;23;20014;-84
2022/01/08 17:13:44;;;;;;;7.55;4.10;;;3.10;99.90;;;;;;6129144;23;20063;-84
2022/01/08 17:16:11;;;;;;;11.10;4.88;;;3.70;99.90;;;;;;6128171;23;20037;-84
2022/01/08 17:18:40;;;;;;;7.82;3.85;;;4.20;99.90;;;;;;6128861;23;20434;-84
2022/01/08 17:21:06;;;;;;;8.27;4.47;;;2.60;99.90;;;;;;6127604;23;20421;-81
2022/01/08 17:23:32;;;;;;;8.13;4.30;;;4.10;99.90;;;;;;6153054;23;20045;-81
2022/01/08 17:26:00;;;;;;;5.78;4.10;;;4.20;99.90;;;;;;6128804;23;20045;-83
2022/01/08 17:28:46;;;;;;;5.55;3.47;;;2.60;99.90;;;;;;6128555;23;20025;-85
2022/01/08 17:31:18;;;;;;;6.22;4.07;;;3.10;99.90;;;;;;6150758;23;20049;-84
2022/01/08 17:33:53;;;;;;;9.60;4.70;;;3.10;99.90;;;;;;6127211;23;20064;-83
2022/01/08 17:36:19;;;;;;;8.27;4.65;;;3.10;99.90;;;;;;6126379;23;20060;-84
2022/01/08 17:38:45;;;;;;;20.02;9.73;;;3.60;99.90;;;;;;6150933;23;20052;-83
2022/01/08 17:41:11;;;;;;;6.40;4.03;;;3.00;99.90;;;;;;6151467;23;20029;-83
2022/01/08 17:43:36;;;;;;;8.35;4.00;;;3.10;99.90;;;;;;6150601;23;20080;-82
2022/01/08 17:46:02;;;;;;;10.45;4.10;;;3.00;99.90;;;;;;6152188;23;20013;-85
2022/01/08 17:48:56;;;;;;;8.60;4.47;;;3.10;99.90;;;;;;6127706;23;20017;-87
2022/01/08 17:51:21;;;;;;;5.85;4.38;;;3.10;99.90;;;;;;6095808;23;20057;-86
2022/01/08 17:53:49;;;;;;;7.00;4.55;;;3.10;99.90;;;;;;6069581;23;20022;-85
2022/01/08 17:56:15;;;;;;;5.18;4.63;;;3.10;99.90;;;;;;6094822;23;20109;-82
2022/01/08 17:58:41;;;;;;;8.13;4.50;;;4.00;99.90;;;;;;6095255;23;20049;-84
2022/01/08 18:01:07;;;;;;;4.78;4.07;;;3.10;99.90;;;;;;6072131;23;20014;-84
2022/01/08 18:03:33;;;;;;;4.70;4.00;;;3.10;99.90;;;;;;6071005;23;20503;-83
2022/01/08 18:06:00;;;;;;;6.45;4.90;;;3.90;99.90;;;;;;6119878;23;20069;-82
2022/01/08 18:08:27;;;;;;;6.28;4.78;;;3.20;99.90;;;;;;6072103;23;20080;-80
2022/01/08 18:10:54;;;;;;;6.50;4.80;;;3.20;99.90;;;;;;6070663;23;20100;-80
2022/01/08 18:13:20;;;;;;;8.23;5.15;;;3.10;99.90;;;;;;6094376;23;20045;-82
2022/01/08 18:15:46;;;;;;;7.88;5.80;;;4.00;99.90;;;;;;6094889;23;20025;-82
2022/01/08 18:18:11;;;;;;;10.60;5.78;;;4.10;99.90;;;;;;6118779;23;20026;-82
2022/01/08 18:20:37;;;;;;;6.93;5.50;;;3.10;99.90;;;;;;6096419;23;20094;-84
2022/01/08 18:23:06;;;;;;;8.68;7.00;;;4.10;99.90;;;;;;6145990;23;20543;-87
2022/01/08 18:25:32;;;;;;;7.93;6.53;;;3.30;99.90;;;;;;6127062;23;20047;-85
2022/01/08 18:27:58;;;;;;;10.35;7.47;;;4.10;99.90;;;;;;6127637;23;20020;-85
2022/01/08 18:30:27;;;;;;;9.75;8.45;;;4.40;99.90;;;;;;6151337;23;20021;-84
2022/01/08 18:32:53;;;;;;;11.32;8.80;;;3.80;99.90;;;;;;6150751;23;20028;-82
2022/01/08 18:35:20;;;;;;;10.45;8.75;;;3.80;99.90;;;;;;6152848;23;20040;-81
2022/01/08 18:37:46;;;;;;;12.68;10.85;;;3.20;99.90;;;;;;6149485;23;20025;-83
2022/01/08 18:40:18;;;;;;;13.48;9.40;;;3.20;99.90;;;;;;6126090;23;20018;-82
2022/01/08 18:42:45;;;;;;;13.98;11.65;;;3.20;99.90;;;;;;6125950;23;20155;-83
2022/01/08 18:45:11;;;;;;;13.45;10.90;;;4.50;99.90;;;;;;6150511;23;20084;-83
2022/01/08 18:47:37;;;;;;;12.80;10.20;;;3.20;99.90;;;;;;6125393;23;20053;-83
2022/01/08 18:50:04;;;;;;;14.85;12.40;;;3.40;99.90;;;;;;6151767;23;20139;-82
2022/01/08 18:52:30;;;;;;;16.77;13.00;;;3.30;99.90;;;;;;6126373;23;20017;-80
2022/01/08 18:54:56;;;;;;;16.63;13.98;;;3.20;99.90;;;;;;6151452;23;20028;-81
2022/01/08 18:57:22;;;;;;;15.32;11.32;;;3.20;99.90;;;;;;6149580;23;20021;-81
2022/01/08 18:59:48;;;;;;;15.43;12.98;;;3.20;99.90;;;;;;6149291;23;20024;-80
2022/01/08 19:02:14;;;;;;;16.15;13.48;;;3.30;99.90;;;;;;6124104;23;20335;-82
2022/01/08 19:04:41;;;;;;;18.55;15.70;;;4.50;99.90;;;;;;6150338;23;20010;-82
2022/01/08 19:07:08;;;;;;;17.17;13.90;;;3.40;99.90;;;;;;6151590;23;20009;-82
2022/01/08 19:09:34;;;;;;;18.48;14.23;;;4.40;99.90;;;;;;6151098;23;20088;-82
2022/01/08 19:11:59;;;;;;;18.25;13.65;;;3.50;99.90;;;;;;6151845;23;20052;-82
2022/01/08 19:14:25;;;;;;;19.65;15.63;;;4.40;99.90;;;;;;6151387;23;20021;-83
2022/01/08 19:16:51;;;;;;;17.58;14.35;;;3.80;99.90;;;;;;6127001;23;20032;-84
2022/01/08 19:19:16;;;;;;;20.17;13.80;;;4.20;99.90;;;;;;6154851;23;20332;-84
2022/01/08 19:21:42;;;;;;;19.67;15.35;;;3.40;99.90;;;;;;6152396;23;20017;-84
2022/01/08 19:24:08;;;;;;;16.05;13.65;;;3.40;99.90;;;;;;6126467;23;20021;-83
2022/01/08 19:26:34;;;;;;;18.67;12.60;;;4.20;99.90;;;;;;6126866;23;20013;-83
2022/01/08 19:29:01;;;;;;;14.48;12.48;;;4.40;99.90;;;;;;6150247;23;20104;-83
2022/01/08 19:31:28;;;;;;;19.08;14.55;;;3.30;99.90;;;;;;6124374;23;20417;-81
2022/01/08 19:33:54;;;;;;;17.15;13.45;;;3.50;99.90;;;;;;6151763;23;20025;-83
2022/01/08 19:36:19;;;;;;;17.63;13.60;;;3.40;99.90;;;;;;6150819;23;20678;-81
2022/01/08 19:38:45;;;;;;;16.15;13.48;;;3.50;99.90;;;;;;6149526;23;20338;-80
2022/01/08 19:41:14;;;;;;;19.13;14.80;;;3.50;99.90;;;;;;6149346;23;20017;-83
2022/01/08 19:43:39;;;;;;;17.77;15.23;;;3.60;99.90;;;;;;6126187;23;20036;-83
2022/01/08 19:46:05;;;;;;;16.02;14.27;;;4.50;99.90;;;;;;6149370;23;20618;-83
2022/01/08 19:48:30;;;;;;;15.75;12.90;;;4.40;99.90;;;;;;6126163;23;20441;-82
2022/01/08 19:50:56;;;;;;;15.77;13.43;;;4.40;99.90;;;;;;6150200;23;20765;-81
2022/01/08 19:53:22;;;;;;;15.57;13.30;;;3.60;99.90;;;;;;6148299;23;20021;-81
2022/01/08 19:55:48;;;;;;;16.77;14.25;;;4.60;99.90;;;;;;6149623;23;20020;-81
2022/01/08 19:58:13;;;;;;;15.40;13.38;;;3.60;99.90;;;;;;6150139;23;20310;-83
2022/01/08 20:00:39;;;;;;;15.05;13.45;;;4.80;99.90;;;;;;6125802;23;20009;-82
2022/01/08 20:03:05;;;;;;;16.98;13.73;;;3.70;99.90;;;;;;6149772;23;20018;-83
2022/01/08 20:05:32;;;;;;;17.90;14.02;;;4.60;99.90;;;;;;6149559;23;20021;-82
2022/01/08 20:07:58;;;;;;;17.48;14.65;;;4.60;99.90;;;;;;6149671;23;20017;-81
2022/01/08 20:10:24;;;;;;;22.50;17.02;;;3.70;99.90;;;;;;6150355;23;20317;-82
2022/01/08 20:12:51;;;;;;;17.95;14.65;;;4.00;99.90;;;;;;6149940;23;20013;-83
2022/01/08 20:15:17;;;;;;;17.45;12.20;;;4.30;99.90;;;;;;6125855;23;20024;-84
2022/01/08 20:17:43;;;;;;;17.88;14.40;;;3.70;99.90;;;;;;6125221;23;20013;-81
2022/01/08 20:20:09;;;;;;;20.35;14.20;;;4.20;99.90;;;;;;6151349;23;20303;-82
2022/01/08 20:22:35;;;;;;;20.95;15.30;;;3.80;99.90;;;;;;6154917;23;20010;-82
2022/01/08 20:25:03;;;;;;;18.50;13.75;;;3.80;99.90;;;;;;6155015;23;20013;-82
2022/01/08 20:27:28;;;;;;;14.30;11.88;;;3.80;99.90;;;;;;6130914;23;20013;-84
2022/01/08 20:29:54;;;;;;;14.98;13.05;;;4.90;99.90;;;;;;6131886;23;20088;-82
2022/01/08 20:32:20;;;;;;;12.45;10.27;;;3.90;99.90;;;;;;6156277;23;20025;-84
2022/01/08 20:34:45;;;;;;;15.73;12.25;;;4.90;99.90;;;;;;6157741;23;20016;-85
2022/01/08 20:37:11;;;;;;;14.27;12.50;;;3.90;99.90;;;;;;6157247;23;20017;-84
2022/01/08 20:39:38;;;;;;;16.48;13.07;;;4.00;99.90;;;;;;6151455;23;20183;-84
2022/01/08 20:42:05;;;;;;;17.30;11.75;;;5.00;99.90;;;;;;6126250;23;20354;-84
2022/01/08 20:44:31;;;;;;;12.63;9.68;;;4.00;99.90;;;;;;6151933;23;20103;-87
2022/01/08 20:46:57;;;;;;;14.10;10.85;;;4.10;99.90;;;;;;6150266;23;20019;-85
2022/01/08 20:49:23;;;;;;;13.18;10.00;;;5.10;99.90;;;;;;6125781;23;20056;-89
2022/01/08 20:51:49;;;;;;;17.98;10.23;;;4.10;99.90;;;;;;6126547;23;20018;-88